createdAt,value
2023-07-14T00:01:48.272Z,14.60
2023-07-14T00:04:18.729Z,14.60
2023-07-14T00:06:47.047Z,14.50
2023-07-14T00:09:25.701Z,14.60
2023-07-14T00:11:54.121Z,14.60
2023-07-14T00:14:21.302Z,14.60
2023-07-14T00:16:48.870Z,14.70
2023-07-14T00:19:19.142Z,14.70
2023-07-14T00:21:47.735Z,14.60
2023-07-14T00:24:19.997Z,14.60
2023-07-14T00:26:52.105Z,14.60
2023-07-14T00:29:38.853Z,14.60
2023-07-14T00:32:23.888Z,14.60
2023-07-14T00:34:51.239Z,14.60
2023-07-14T00:37:19.311Z,14.70
2023-07-14T00:39:46.450Z,14.60
2023-07-14T00:42:15.876Z,14.70
2023-07-14T00:44:46.310Z,14.70
2023-07-14T00:47:26.179Z,14.70
2023-07-14T00:49:53.896Z,14.70
2023-07-14T00:52:34.182Z,14.70
2023-07-14T00:55:10.384Z,14.60
2023-07-14T00:57:37.949Z,14.60
2023-07-14T01:00:31.607Z,14.70
2023-07-14T01:03:00.736Z,14.60
2023-07-14T01:05:29.799Z,14.60
2023-07-14T01:07:57.444Z,14.60
2023-07-14T01:10:29.189Z,14.60
2023-07-14T01:13:03.559Z,14.60
2023-07-14T01:15:30.760Z,14.60
2023-07-14T01:17:58.373Z,14.70
2023-07-14T01:20:25.752Z,14.70
2023-07-14T01:23:24.426Z,14.60
2023-07-14T01:26:45.332Z,14.60
2023-07-14T01:29:12.712Z,14.60
2023-07-14T01:31:39.975Z,14.60
2023-07-14T01:34:07.204Z,14.60
2023-07-14T01:36:35.130Z,14.70
2023-07-14T01:39:02.433Z,14.60
2023-07-14T01:41:29.643Z,14.60
2023-07-14T01:44:05.729Z,14.60
2023-07-14T01:46:33.243Z,14.60
2023-07-14T01:49:00.444Z,14.70
2023-07-14T01:51:36.900Z,14.70
2023-07-14T01:54:19.687Z,14.70
2023-07-14T01:56:48.714Z,14.60
2023-07-14T01:59:38.690Z,14.60
2023-07-14T02:02:12.559Z,14.70
2023-07-14T02:04:41.442Z,14.70
2023-07-14T02:07:13.686Z,14.70
2023-07-14T02:09:42.189Z,14.70
2023-07-14T02:12:18.123Z,14.80
2023-07-14T02:14:55.947Z,14.80
2023-07-14T02:17:32.388Z,14.70
2023-07-14T02:20:26.308Z,14.70
2023-07-14T02:22:56.099Z,14.70
2023-07-14T02:25:27.930Z,14.80
2023-07-14T02:27:55.515Z,14.70
2023-07-14T02:30:24.507Z,14.70
2023-07-14T02:33:06.151Z,14.60
2023-07-14T02:35:57.685Z,14.60
2023-07-14T02:38:26.154Z,14.60
2023-07-14T02:41:06.128Z,14.60
2023-07-14T02:43:33.391Z,14.70
2023-07-14T02:46:15.376Z,14.70
2023-07-14T02:48:45.700Z,14.70
2023-07-14T02:51:13.935Z,14.70
2023-07-14T02:53:41.636Z,14.70
2023-07-14T02:56:09.189Z,14.70
2023-07-14T02:58:37.617Z,14.60
2023-07-14T03:01:06.214Z,14.60
2023-07-14T03:03:35.556Z,14.60
2023-07-14T03:06:02.880Z,14.60
2023-07-14T03:08:29.984Z,14.60
2023-07-14T03:10:59.372Z,14.60
2023-07-14T03:13:26.854Z,14.60
2023-07-14T03:15:54.056Z,14.60
2023-07-14T03:18:21.257Z,14.50
2023-07-14T03:20:48.433Z,14.60
2023-07-14T03:23:15.609Z,14.60
2023-07-14T03:25:42.747Z,14.60
2023-07-14T03:28:09.849Z,14.60
2023-07-14T03:30:43.744Z,14.60
2023-07-14T03:33:11.067Z,14.50
2023-07-14T03:35:38.183Z,14.60
2023-07-14T03:38:05.944Z,14.50
2023-07-14T03:40:33.122Z,14.60
2023-07-14T03:43:04.478Z,14.60
2023-07-14T03:45:33.196Z,14.60
2023-07-14T03:48:00.736Z,14.60
2023-07-14T03:50:28.430Z,14.50
2023-07-14T03:52:55.530Z,14.60
2023-07-14T03:55:22.714Z,14.60
2023-07-14T03:58:02.624Z,14.70
2023-07-14T04:00:32.225Z,14.60
2023-07-14T04:03:00.443Z,14.60
2023-07-14T04:05:28.341Z,14.50
2023-07-14T04:07:55.561Z,14.50
2023-07-14T04:10:22.682Z,14.50
2023-07-14T04:12:50.816Z,14.50
2023-07-14T04:15:20.786Z,14.50
2023-07-14T04:17:48.036Z,14.60
2023-07-14T04:20:15.215Z,14.70
2023-07-14T04:22:43.300Z,14.80
2023-07-14T04:25:10.717Z,14.70
2023-07-14T04:27:38.867Z,14.70
2023-07-14T04:30:09.543Z,14.70
2023-07-14T04:32:37.520Z,14.80
2023-07-14T04:35:05.776Z,14.80
2023-07-14T04:37:33.341Z,14.80
2023-07-14T04:40:00.957Z,14.70
2023-07-14T04:42:28.450Z,14.70
2023-07-14T04:44:55.672Z,14.70
2023-07-14T04:47:23.224Z,14.70
2023-07-14T04:49:50.499Z,14.80
2023-07-14T04:52:17.741Z,14.70
2023-07-14T04:54:45.141Z,14.60
2023-07-14T04:57:12.266Z,14.80
2023-07-14T04:59:40.068Z,14.70
2023-07-14T05:02:08.483Z,14.70
2023-07-14T05:05:00.274Z,14.70
2023-07-14T05:07:28.433Z,14.70
2023-07-14T05:09:55.579Z,14.70
2023-07-14T05:12:22.752Z,14.80
2023-07-14T05:14:49.889Z,14.80
2023-07-14T05:17:17.144Z,14.70
2023-07-14T05:19:44.427Z,14.80
2023-07-14T05:22:11.579Z,14.80
2023-07-14T05:24:38.781Z,14.90
2023-07-14T05:27:06.038Z,14.80
2023-07-14T05:29:33.159Z,14.90
2023-07-14T05:32:00.438Z,15.00
2023-07-14T05:34:27.569Z,14.90
2023-07-14T05:36:54.721Z,15.10
2023-07-14T05:39:21.910Z,15.00
2023-07-14T05:41:49.068Z,15.10
2023-07-14T05:44:16.540Z,15.20
2023-07-14T05:46:43.818Z,15.00
2023-07-14T05:49:11.203Z,15.10
2023-07-14T05:51:38.334Z,15.10
2023-07-14T05:54:06.321Z,15.30
2023-07-14T05:56:33.606Z,15.20
2023-07-14T05:59:01.201Z,15.30
2023-07-14T06:01:28.468Z,15.40
2023-07-14T06:03:55.731Z,15.20
2023-07-14T06:06:23.189Z,15.20
2023-07-14T06:08:51.125Z,15.40
2023-07-14T06:11:18.415Z,15.50
2023-07-14T06:13:45.672Z,15.50
2023-07-14T06:16:13.181Z,15.60
2023-07-14T06:18:40.817Z,15.70
2023-07-14T06:21:09.386Z,16.20
2023-07-14T06:23:36.803Z,16.70
2023-07-14T06:26:04.083Z,17.00
2023-07-14T06:28:31.347Z,17.70
2023-07-14T06:31:02.133Z,17.70
2023-07-14T06:33:29.992Z,16.90
2023-07-14T06:35:58.382Z,16.80
2023-07-14T06:38:31.750Z,16.70
2023-07-14T06:41:03.899Z,16.80
2023-07-14T06:43:32.815Z,17.10
2023-07-14T06:46:00.446Z,17.20
2023-07-14T06:48:28.588Z,16.90
2023-07-14T06:50:56.216Z,16.50
2023-07-14T06:53:24.647Z,16.40
2023-07-14T06:55:52.389Z,16.30
2023-07-14T06:58:20.422Z,16.20
2023-07-14T07:00:47.756Z,16.20
2023-07-14T07:03:15.171Z,16.20
2023-07-14T07:05:45.158Z,16.00
2023-07-14T07:08:14.194Z,15.80
2023-07-14T07:10:42.920Z,15.80
2023-07-14T07:13:11.709Z,16.00
2023-07-14T07:15:39.642Z,16.20
2023-07-14T07:18:08.178Z,16.40
2023-07-14T07:20:43.103Z,16.40
2023-07-14T07:23:10.912Z,16.40
2023-07-14T07:25:38.214Z,16.70
2023-07-14T07:28:05.692Z,16.60
2023-07-14T07:30:33.086Z,16.60
2023-07-14T07:33:00.666Z,16.30
2023-07-14T07:35:29.086Z,16.20
2023-07-14T07:37:56.323Z,16.20
2023-07-14T07:40:23.555Z,16.30
2023-07-14T07:42:51.012Z,16.30
2023-07-14T07:45:19.741Z,16.60
2023-07-14T07:47:47.346Z,16.70
2023-07-14T07:50:14.655Z,17.10
2023-07-14T07:52:42.433Z,17.00
2023-07-14T07:55:09.796Z,17.30
2023-07-14T07:57:37.064Z,17.30
2023-07-14T08:00:09.511Z,17.20
2023-07-14T08:02:37.587Z,17.20
2023-07-14T08:05:06.265Z,16.90
2023-07-14T08:07:33.437Z,17.00
2023-07-14T08:10:00.710Z,16.90
2023-07-14T08:12:27.828Z,16.80
2023-07-14T08:14:57.472Z,16.80
2023-07-14T08:17:33.913Z,16.60
2023-07-14T08:20:01.702Z,16.50
2023-07-14T08:22:30.823Z,16.40
2023-07-14T08:24:58.843Z,16.40
2023-07-14T08:27:26.194Z,16.20
2023-07-14T08:29:55.300Z,16.30
2023-07-14T08:32:22.674Z,16.20
2023-07-14T08:34:50.057Z,16.20
2023-07-14T08:37:17.434Z,16.20
2023-07-14T08:39:45.375Z,16.20
2023-07-14T08:42:32.479Z,16.20
2023-07-14T08:45:20.790Z,16.40
2023-07-14T08:48:19.533Z,16.60
2023-07-14T08:50:52.414Z,16.70
2023-07-14T08:53:31.314Z,16.70
2023-07-14T08:56:07.078Z,16.50
2023-07-14T08:58:41.609Z,16.30
2023-07-14T09:01:30.681Z,16.40
2023-07-14T09:04:02.559Z,16.40
2023-07-14T09:06:35.669Z,16.50
2023-07-14T09:09:03.537Z,16.60
2023-07-14T09:12:01.732Z,16.60
2023-07-14T09:14:55.691Z,16.70
2023-07-14T09:17:38.210Z,16.80
2023-07-14T09:20:24.143Z,16.70
2023-07-14T09:23:23.435Z,16.70
2023-07-14T09:25:59.857Z,16.80
2023-07-14T09:28:38.596Z,16.90
2023-07-14T09:31:16.746Z,16.70
2023-07-14T09:33:50.314Z,16.70
2023-07-14T09:36:19.783Z,16.60
2023-07-14T09:39:01.109Z,16.60
2023-07-14T09:41:32.086Z,16.60
2023-07-14T09:44:00.009Z,16.70
2023-07-14T09:46:37.766Z,16.80
2023-07-14T09:49:14.298Z,16.80
2023-07-14T09:52:12.441Z,16.80
2023-07-14T09:54:53.693Z,16.70
2023-07-14T09:57:34.260Z,16.80
2023-07-14T10:00:16.170Z,16.70
2023-07-14T10:02:43.439Z,16.80
2023-07-14T10:05:31.967Z,16.80
2023-07-14T10:07:59.098Z,17.10
2023-07-14T10:10:26.902Z,17.30
2023-07-14T10:12:54.685Z,17.50
2023-07-14T10:15:34.254Z,17.50
2023-07-14T10:18:05.073Z,17.40
2023-07-14T10:20:34.292Z,17.30
2023-07-14T10:23:02.163Z,17.10
2023-07-14T10:25:31.456Z,17.20
2023-07-14T10:28:11.553Z,17.20
2023-07-14T10:31:00.225Z,17.30
2023-07-14T10:33:34.526Z,17.70
2023-07-14T10:36:10.206Z,18.30
2023-07-14T10:38:58.435Z,18.30
2023-07-14T10:41:26.556Z,18.60
2023-07-14T10:44:07.618Z,17.60
2023-07-14T10:46:44.602Z,17.60
2023-07-14T10:49:22.256Z,17.60
2023-07-14T10:51:56.876Z,17.50
2023-07-14T10:54:39.708Z,17.40
2023-07-14T10:57:25.321Z,17.20
2023-07-14T11:00:20.899Z,17.10
2023-07-14T11:03:06.370Z,17.00
2023-07-14T11:05:34.404Z,17.20
2023-07-14T11:08:01.802Z,16.90
2023-07-14T11:10:40.974Z,16.90
2023-07-14T11:13:30.115Z,17.00
2023-07-14T11:16:11.337Z,17.00
2023-07-14T11:18:53.297Z,17.00
2023-07-14T11:21:20.392Z,17.10
2023-07-14T11:24:20.004Z,17.10
2023-07-14T11:26:53.135Z,16.90
2023-07-14T11:29:21.705Z,17.10
2023-07-14T11:31:57.787Z,17.00
2023-07-14T11:34:30.054Z,17.10
2023-07-14T11:37:15.997Z,17.10
2023-07-14T11:39:43.186Z,17.10
2023-07-14T11:42:23.558Z,17.00
2023-07-14T11:44:52.928Z,17.00
2023-07-14T11:47:34.598Z,17.00
2023-07-14T11:50:05.102Z,17.00
2023-07-14T11:52:37.735Z,17.30
2023-07-14T11:55:21.436Z,17.30
2023-07-14T11:58:05.506Z,17.60
2023-07-14T12:00:45.929Z,18.10
2023-07-14T12:03:40.468Z,18.50
2023-07-14T12:06:20.184Z,19.20
2023-07-14T12:09:12.273Z,19.50
2023-07-14T12:11:42.528Z,20.40
2023-07-14T12:14:31.527Z,20.70
2023-07-14T12:17:00.400Z,20.50
2023-07-14T12:19:33.818Z,20.60
2023-07-14T12:22:11.608Z,20.10
2023-07-14T12:24:49.131Z,19.80
2023-07-14T12:27:35.995Z,19.70
2023-07-14T12:30:28.191Z,19.40
2023-07-14T12:33:01.175Z,19.60
2023-07-14T12:35:29.714Z,19.60
2023-07-14T12:38:07.660Z,19.30
2023-07-14T12:40:34.932Z,19.50
2023-07-14T12:43:08.425Z,19.60
2023-07-14T12:45:36.391Z,19.60
2023-07-14T12:48:05.011Z,19.50
2023-07-14T12:50:32.472Z,19.50
2023-07-14T12:53:00.431Z,19.40
2023-07-14T12:55:31.794Z,19.00
2023-07-14T12:57:59.448Z,19.20
2023-07-14T13:00:35.707Z,19.30
2023-07-14T13:03:03.940Z,19.40
2023-07-14T13:05:39.330Z,19.30
2023-07-14T13:08:12.475Z,19.20
2023-07-14T13:10:40.993Z,18.90
2023-07-14T13:13:19.068Z,19.00
2023-07-14T13:15:49.093Z,18.70
2023-07-14T13:18:37.912Z,18.90
2023-07-14T13:21:26.391Z,18.70
2023-07-14T13:23:57.334Z,18.80
2023-07-14T13:26:24.996Z,19.00
2023-07-14T13:29:01.203Z,18.80
2023-07-14T13:31:41.926Z,18.90
2023-07-14T13:34:28.016Z,18.90
2023-07-14T13:36:55.920Z,18.80
2023-07-14T13:39:30.228Z,18.80
2023-07-14T13:42:00.072Z,18.40
2023-07-14T13:44:46.857Z,18.30
2023-07-14T13:47:21.647Z,18.30
2023-07-14T13:49:53.006Z,18.00
2023-07-14T13:52:26.593Z,18.00
2023-07-14T13:54:57.524Z,18.00
2023-07-14T13:57:25.421Z,18.10
2023-07-14T13:59:52.957Z,18.00
2023-07-14T14:02:29.495Z,18.10
2023-07-14T14:04:56.990Z,18.10
2023-07-14T14:07:24.252Z,18.20
2023-07-14T14:09:51.634Z,18.20
2023-07-14T14:12:19.181Z,18.20
2023-07-14T14:14:47.579Z,18.10
2023-07-14T14:17:37.927Z,18.00
2023-07-14T14:20:12.586Z,18.00
2023-07-14T14:22:40.144Z,18.00
2023-07-14T14:25:24.765Z,18.00
2023-07-14T14:27:52.834Z,18.00
2023-07-14T14:30:22.894Z,17.90
2023-07-14T14:32:50.123Z,17.70
2023-07-14T14:35:33.255Z,17.60
2023-07-14T14:38:18.199Z,17.60
2023-07-14T14:40:57.054Z,17.30
2023-07-14T14:43:26.629Z,17.20
2023-07-14T14:45:56.714Z,17.20
2023-07-14T14:48:39.359Z,17.20
2023-07-14T14:51:13.926Z,17.30
2023-07-14T14:53:42.870Z,17.20
2023-07-14T14:56:20.557Z,17.10
2023-07-14T14:58:48.442Z,17.10
2023-07-14T15:01:46.849Z,17.10
2023-07-14T15:04:18.019Z,17.10
2023-07-14T15:06:47.307Z,17.10
2023-07-14T15:09:15.931Z,17.00
2023-07-14T15:11:49.734Z,17.00
2023-07-14T15:14:25.360Z,17.10
2023-07-14T15:16:52.985Z,17.10
2023-07-14T15:19:21.220Z,17.00
2023-07-14T15:21:48.331Z,16.90
2023-07-14T15:24:15.506Z,16.80
2023-07-14T15:26:45.999Z,16.70
2023-07-14T15:29:18.336Z,16.70
2023-07-14T15:31:47.906Z,16.80
2023-07-14T15:34:18.092Z,16.80
2023-07-14T15:36:45.445Z,16.80
2023-07-14T15:39:15.740Z,16.80
2023-07-14T15:41:46.943Z,16.70
2023-07-14T15:44:16.970Z,16.70
2023-07-14T15:46:44.282Z,16.60
2023-07-14T15:49:18.689Z,16.50
2023-07-14T15:51:47.239Z,16.70
2023-07-14T15:54:29.584Z,16.90
2023-07-14T15:57:02.340Z,16.80
2023-07-14T15:59:30.633Z,16.70
2023-07-14T16:01:57.880Z,16.70
2023-07-14T16:04:25.161Z,16.80
2023-07-14T16:06:58.155Z,16.80
2023-07-14T16:09:33.660Z,16.80
2023-07-14T16:12:02.715Z,16.70
2023-07-14T16:14:31.202Z,16.80
2023-07-14T16:16:58.433Z,16.80
2023-07-14T16:19:25.672Z,16.80
2023-07-14T16:21:54.694Z,16.80
2023-07-14T16:24:38.609Z,16.90
2023-07-14T16:27:21.352Z,16.90
2023-07-14T16:29:49.639Z,16.90
2023-07-14T16:32:18.123Z,16.90
2023-07-14T16:34:45.842Z,16.80
2023-07-14T16:37:21.724Z,16.80
2023-07-14T16:39:49.425Z,16.90
2023-07-14T16:42:19.639Z,16.80
2023-07-14T16:44:46.923Z,16.70
2023-07-14T16:47:14.474Z,16.70
2023-07-14T16:49:42.066Z,16.70
2023-07-14T16:52:27.221Z,16.70
2023-07-14T16:54:54.610Z,16.70
2023-07-14T16:57:33.600Z,16.60
2023-07-14T17:00:00.877Z,16.70
2023-07-14T17:02:28.544Z,16.70
2023-07-14T17:04:56.316Z,16.70
2023-07-14T17:07:23.786Z,16.60
2023-07-14T17:09:51.008Z,16.60
2023-07-14T17:12:18.948Z,16.50
2023-07-14T17:14:46.733Z,16.60
2023-07-14T17:17:17.063Z,16.60
2023-07-14T17:19:44.745Z,16.50
2023-07-14T17:22:13.655Z,16.60
2023-07-14T17:24:42.410Z,16.60
2023-07-14T17:27:19.950Z,16.60
2023-07-14T17:29:50.317Z,16.60
2023-07-14T17:32:19.092Z,16.50
2023-07-14T17:34:46.218Z,16.60
2023-07-14T17:37:22.731Z,16.50
2023-07-14T17:39:50.099Z,16.50
2023-07-14T17:42:19.682Z,16.50
2023-07-14T17:44:47.426Z,16.50
2023-07-14T17:47:14.750Z,16.50
2023-07-14T17:49:42.315Z,16.50
2023-07-14T17:52:19.358Z,16.50
2023-07-14T17:54:48.353Z,16.50
2023-07-14T17:57:18.865Z,16.50
2023-07-14T17:59:51.710Z,16.50
2023-07-14T18:02:32.172Z,16.50
2023-07-14T18:05:00.138Z,16.50
2023-07-14T18:07:27.536Z,16.50
2023-07-14T18:09:54.902Z,16.50
2023-07-14T18:12:23.089Z,16.50
2023-07-14T18:14:50.401Z,16.50
2023-07-14T18:17:20.307Z,16.50
2023-07-14T18:19:49.065Z,16.50
2023-07-14T18:22:29.565Z,16.50
2023-07-14T18:24:57.965Z,16.50
2023-07-14T18:27:26.293Z,16.50
2023-07-14T18:29:53.605Z,16.50
2023-07-14T18:32:20.858Z,16.50
2023-07-14T18:34:48.125Z,16.50
2023-07-14T18:37:16.731Z,16.50
2023-07-14T18:39:48.183Z,16.50
2023-07-14T18:42:20.128Z,16.50
2023-07-14T18:44:47.666Z,16.50
2023-07-14T18:47:14.951Z,16.60
2023-07-14T18:49:43.764Z,16.50
2023-07-14T18:52:17.423Z,16.50
2023-07-14T18:54:45.542Z,16.50
2023-07-14T18:57:19.392Z,16.50
2023-07-14T18:59:47.366Z,16.50
2023-07-14T19:02:34.091Z,16.40
2023-07-14T19:05:07.780Z,16.40
2023-07-14T19:07:36.936Z,16.40
2023-07-14T19:10:06.723Z,16.50
2023-07-14T19:12:36.468Z,16.50
2023-07-14T19:15:25.127Z,16.60
2023-07-14T19:17:53.554Z,16.50
2023-07-14T19:20:21.513Z,16.50
2023-07-14T19:22:50.061Z,16.50
2023-07-14T19:25:22.887Z,16.50
2023-07-14T19:27:51.454Z,16.50
2023-07-14T19:30:22.751Z,16.40
2023-07-14T19:32:55.111Z,16.40
2023-07-14T19:35:22.487Z,16.40
2023-07-14T19:37:50.382Z,16.40
2023-07-14T19:40:20.275Z,16.40
2023-07-14T19:42:47.748Z,16.40
2023-07-14T19:45:20.909Z,16.40
2023-07-14T19:47:49.537Z,16.40
2023-07-14T19:50:19.029Z,16.30
2023-07-14T19:52:47.663Z,16.30
2023-07-14T19:55:22.771Z,16.30
2023-07-14T19:57:52.500Z,16.30
2023-07-14T20:00:23.456Z,16.40
2023-07-14T20:02:51.717Z,16.40
2023-07-14T20:05:25.581Z,16.30
2023-07-14T20:07:53.487Z,16.30
2023-07-14T20:10:25.611Z,16.30
2023-07-14T20:12:54.072Z,16.30
2023-07-14T20:15:24.885Z,16.30
2023-07-14T20:17:52.662Z,16.20
2023-07-14T20:20:21.244Z,16.20
2023-07-14T20:22:53.668Z,16.20
2023-07-14T20:25:21.436Z,16.20
2023-07-14T20:27:48.737Z,16.20
2023-07-14T20:30:20.236Z,16.30
2023-07-14T20:32:49.307Z,16.20
2023-07-14T20:35:22.472Z,16.30
2023-07-14T20:37:50.353Z,16.20
2023-07-14T20:40:21.657Z,16.20
2023-07-14T20:42:48.835Z,16.20
2023-07-14T20:45:21.090Z,16.20
2023-07-14T20:47:49.574Z,16.30
2023-07-14T20:50:17.655Z,16.20
2023-07-14T20:52:51.503Z,16.30
2023-07-14T20:55:28.667Z,16.30
2023-07-14T20:57:57.066Z,16.30
2023-07-14T21:00:24.521Z,16.30
2023-07-14T21:02:52.214Z,16.20
2023-07-14T21:05:19.689Z,16.20
2023-07-14T21:07:47.354Z,16.10
2023-07-14T21:10:18.178Z,16.10
2023-07-14T21:12:47.309Z,16.00
2023-07-14T21:15:18.347Z,16.00
2023-07-14T21:17:46.044Z,16.00
2023-07-14T21:20:17.796Z,16.00
2023-07-14T21:22:45.276Z,15.90
2023-07-14T21:25:17.001Z,16.00
2023-07-14T21:27:44.392Z,15.90
2023-07-14T21:30:12.243Z,15.90
2023-07-14T21:32:40.883Z,15.90
2023-07-14T21:35:20.569Z,15.90
2023-07-14T21:37:48.735Z,16.00
2023-07-14T21:40:16.988Z,16.10
2023-07-14T21:42:45.333Z,16.10
2023-07-14T21:45:17.933Z,16.10
2023-07-14T21:47:46.644Z,16.00
2023-07-14T21:50:14.636Z,16.00
2023-07-14T21:52:41.869Z,16.00
2023-07-14T21:55:16.962Z,16.00
2023-07-14T21:57:44.459Z,16.00
2023-07-14T22:00:16.935Z,16.10
2023-07-14T22:02:45.735Z,16.00
2023-07-14T22:05:14.812Z,16.10
2023-07-14T22:07:42.803Z,16.10
2023-07-14T22:10:16.534Z,16.10
2023-07-14T22:12:43.827Z,16.00
2023-07-14T22:15:21.035Z,16.00
2023-07-14T22:17:48.559Z,16.00
2023-07-14T22:20:18.572Z,16.00
2023-07-14T22:22:49.901Z,16.00
2023-07-14T22:25:17.621Z,16.00
2023-07-14T22:27:44.921Z,16.00
2023-07-14T22:30:13.170Z,16.00
2023-07-14T22:32:43.860Z,16.00
2023-07-14T22:35:17.925Z,15.90
2023-07-14T22:37:46.382Z,15.90
2023-07-14T22:40:16.097Z,15.90
2023-07-14T22:42:44.663Z,15.90
2023-07-14T22:45:17.264Z,16.00
2023-07-14T22:47:45.539Z,16.00
2023-07-14T22:50:15.529Z,16.00
2023-07-14T22:52:43.612Z,16.00
2023-07-14T22:55:21.685Z,15.90
2023-07-14T22:57:51.546Z,16.00
2023-07-14T23:00:19.334Z,16.00
2023-07-14T23:02:46.668Z,16.00
2023-07-14T23:05:21.550Z,16.00
2023-07-14T23:07:49.269Z,16.00
2023-07-14T23:10:16.570Z,15.90
2023-07-14T23:12:43.793Z,15.90
2023-07-14T23:15:17.540Z,15.90
2023-07-14T23:17:45.974Z,15.90
2023-07-14T23:20:14.982Z,15.90
2023-07-14T23:22:43.271Z,15.90
2023-07-14T23:25:19.874Z,15.90
2023-07-14T23:27:47.295Z,16.00
2023-07-14T23:30:15.344Z,16.00
2023-07-14T23:32:42.499Z,16.00
2023-07-14T23:35:15.445Z,16.00
2023-07-14T23:37:42.584Z,16.00
2023-07-14T23:40:14.172Z,16.00
2023-07-14T23:42:42.109Z,16.00
2023-07-14T23:45:19.176Z,16.00
2023-07-14T23:47:46.408Z,16.00
2023-07-14T23:50:14.694Z,15.90
2023-07-14T23:52:42.936Z,16.00
2023-07-14T23:55:22.636Z,15.90
2023-07-14T23:57:50.980Z,15.90
